sensor_id;sensor_type;location;lat;lon;timestamp;P1;durP1;ratioP1;P2;durP2;ratioP2
22963;SDS011;11648;49.306;6.934;2023-07-30T00:01:30;4.00;;;1.53;;
22963;SDS011;11648;49.306;6.934;2023-07-30T00:03:57;2.43;;;1.40;;
22963;SDS011;11648;49.306;6.934;2023-07-30T00:06:24;2.90;;;1.40;;
22963;SDS011;11648;49.306;6.934;2023-07-30T00:08:51;4.23;;;1.57;;
22963;SDS011;11648;49.306;6.934;2023-07-30T00:11:17;2.93;;;1.43;;
22963;SDS011;11648;49.306;6.934;2023-07-30T00:13:44;3.50;;;1.60;;
22963;SDS011;11648;49.306;6.934;2023-07-30T00:16:11;2.80;;;1.50;;
22963;SDS011;11648;49.306;6.934;2023-07-30T00:18:38;2.47;;;1.10;;
22963;SDS011;11648;49.306;6.934;2023-07-30T00:21:04;4.33;;;1.90;;
22963;SDS011;11648;49.306;6.934;2023-07-30T00:23:31;3.03;;;1.53;;
22963;SDS011;11648;49.306;6.934;2023-07-30T00:25:58;3.67;;;1.53;;
22963;SDS011;11648;49.306;6.934;2023-07-30T00:28:24;2.50;;;1.27;;
22963;SDS011;11648;49.306;6.934;2023-07-30T00:30:51;3.73;;;1.30;;
22963;SDS011;11648;49.306;6.934;2023-07-30T00:33:18;2.77;;;1.50;;
22963;SDS011;11648;49.306;6.934;2023-07-30T00:35:45;4.67;;;1.70;;
22963;SDS011;11648;49.306;6.934;2023-07-30T00:38:11;2.57;;;1.33;;
22963;SDS011;11648;49.306;6.934;2023-07-30T00:40:39;2.90;;;1.80;;
22963;SDS011;11648;49.306;6.934;2023-07-30T00:43:07;3.33;;;1.50;;
22963;SDS011;11648;49.306;6.934;2023-07-30T00:45:34;3.33;;;1.60;;
22963;SDS011;11648;49.306;6.934;2023-07-30T00:48:02;3.37;;;1.30;;
22963;SDS011;11648;49.306;6.934;2023-07-30T00:50:29;2.00;;;1.30;;
22963;SDS011;11648;49.306;6.934;2023-07-30T00:52:57;2.33;;;1.60;;
22963;SDS011;11648;49.306;6.934;2023-07-30T00:55:23;2.80;;;1.43;;
22963;SDS011;11648;49.306;6.934;2023-07-30T00:57:51;4.93;;;1.80;;
22963;SDS011;11648;49.306;6.934;2023-07-30T01:00:18;3.27;;;1.70;;
22963;SDS011;11648;49.306;6.934;2023-07-30T01:02:45;2.20;;;1.40;;
22963;SDS011;11648;49.306;6.934;2023-07-30T01:05:12;2.93;;;2.00;;
22963;SDS011;11648;49.306;6.934;2023-07-30T01:07:38;3.87;;;2.07;;
22963;SDS011;11648;49.306;6.934;2023-07-30T01:10:05;2.87;;;1.70;;
22963;SDS011;11648;49.306;6.934;2023-07-30T01:12:32;6.70;;;2.10;;
22963;SDS011;11648;49.306;6.934;2023-07-30T01:15:00;4.73;;;2.40;;
22963;SDS011;11648;49.306;6.934;2023-07-30T01:17:29;5.20;;;2.40;;
22963;SDS011;11648;49.306;6.934;2023-07-30T01:19:57;4.07;;;2.30;;
22963;SDS011;11648;49.306;6.934;2023-07-30T01:22:24;5.77;;;2.30;;
22963;SDS011;11648;49.306;6.934;2023-07-30T01:24:50;4.57;;;2.30;;
22963;SDS011;11648;49.306;6.934;2023-07-30T01:27:20;4.67;;;2.37;;
22963;SDS011;11648;49.306;6.934;2023-07-30T01:32:34;3.10;;;2.00;;
22963;SDS011;11648;49.306;6.934;2023-07-30T01:35:02;4.23;;;2.20;;
22963;SDS011;11648;49.306;6.934;2023-07-30T01:37:31;3.37;;;1.90;;
22963;SDS011;11648;49.306;6.934;2023-07-30T01:40:00;5.57;;;2.20;;
22963;SDS011;11648;49.306;6.934;2023-07-30T01:42:29;4.13;;;2.43;;
22963;SDS011;11648;49.306;6.934;2023-07-30T01:44:57;4.80;;;2.47;;
22963;SDS011;11648;49.306;6.934;2023-07-30T01:47:23;5.83;;;2.40;;
22963;SDS011;11648;49.306;6.934;2023-07-30T01:49:50;3.00;;;2.20;;
22963;SDS011;11648;49.306;6.934;2023-07-30T01:52:17;3.83;;;2.40;;
22963;SDS011;11648;49.306;6.934;2023-07-30T01:54:44;5.33;;;2.40;;
22963;SDS011;11648;49.306;6.934;2023-07-30T01:57:11;3.00;;;2.30;;
22963;SDS011;11648;49.306;6.934;2023-07-30T01:59:39;5.53;;;2.37;;
22963;SDS011;11648;49.306;6.934;2023-07-30T02:02:06;2.73;;;2.10;;
22963;SDS011;11648;49.306;6.934;2023-07-30T02:04:33;3.17;;;1.97;;
22963;SDS011;11648;49.306;6.934;2023-07-30T02:07:00;5.30;;;2.40;;
22963;SDS011;11648;49.306;6.934;2023-07-30T02:09:27;4.23;;;2.50;;
22963;SDS011;11648;49.306;6.934;2023-07-30T02:11:55;3.10;;;2.40;;
22963;SDS011;11648;49.306;6.934;2023-07-30T02:14:21;3.23;;;1.97;;
22963;SDS011;11648;49.306;6.934;2023-07-30T02:16:49;6.43;;;2.53;;
22963;SDS011;11648;49.306;6.934;2023-07-30T02:19:16;5.30;;;2.40;;
22963;SDS011;11648;49.306;6.934;2023-07-30T02:21:43;2.53;;;1.80;;
22963;SDS011;11648;49.306;6.934;2023-07-30T02:24:10;3.03;;;2.07;;
22963;SDS011;11648;49.306;6.934;2023-07-30T02:26:38;2.20;;;1.70;;
22963;SDS011;11648;49.306;6.934;2023-07-30T02:29:05;3.37;;;2.00;;
22963;SDS011;11648;49.306;6.934;2023-07-30T02:31:32;4.73;;;1.80;;
22963;SDS011;11648;49.306;6.934;2023-07-30T02:34:00;3.17;;;1.33;;
22963;SDS011;11648;49.306;6.934;2023-07-30T02:36:26;2.70;;;1.67;;
22963;SDS011;11648;49.306;6.934;2023-07-30T02:38:53;3.27;;;1.40;;
22963;SDS011;11648;49.306;6.934;2023-07-30T02:41:20;2.50;;;1.50;;
22963;SDS011;11648;49.306;6.934;2023-07-30T02:43:47;4.83;;;1.67;;
22963;SDS011;11648;49.306;6.934;2023-07-30T02:46:13;3.17;;;1.57;;
22963;SDS011;11648;49.306;6.934;2023-07-30T02:48:40;3.20;;;1.43;;
22963;SDS011;11648;49.306;6.934;2023-07-30T02:51:07;2.70;;;1.50;;
22963;SDS011;11648;49.306;6.934;2023-07-30T02:53:34;1.93;;;1.30;;
22963;SDS011;11648;49.306;6.934;2023-07-30T02:56:00;3.10;;;1.30;;
22963;SDS011;11648;49.306;6.934;2023-07-30T02:58:27;2.83;;;1.40;;
22963;SDS011;11648;49.306;6.934;2023-07-30T03:00:54;2.30;;;1.20;;
22963;SDS011;11648;49.306;6.934;2023-07-30T03:03:21;2.43;;;1.50;;
22963;SDS011;11648;49.306;6.934;2023-07-30T03:05:49;2.10;;;1.07;;
22963;SDS011;11648;49.306;6.934;2023-07-30T03:08:16;2.70;;;1.60;;
22963;SDS011;11648;49.306;6.934;2023-07-30T03:10:43;3.33;;;1.40;;
22963;SDS011;11648;49.306;6.934;2023-07-30T03:13:09;3.90;;;1.60;;
22963;SDS011;11648;49.306;6.934;2023-07-30T03:15:36;4.07;;;1.60;;
22963;SDS011;11648;49.306;6.934;2023-07-30T03:18:03;2.43;;;1.30;;
22963;SDS011;11648;49.306;6.934;2023-07-30T03:20:30;3.67;;;1.53;;
22963;SDS011;11648;49.306;6.934;2023-07-30T03:22:57;4.00;;;1.57;;
22963;SDS011;11648;49.306;6.934;2023-07-30T03:25:24;3.03;;;1.73;;
22963;SDS011;11648;49.306;6.934;2023-07-30T03:27:51;2.37;;;1.27;;
22963;SDS011;11648;49.306;6.934;2023-07-30T03:30:18;3.33;;;1.67;;
22963;SDS011;11648;49.306;6.934;2023-07-30T03:32:44;3.83;;;1.60;;
22963;SDS011;11648;49.306;6.934;2023-07-30T03:35:11;2.80;;;1.80;;
22963;SDS011;11648;49.306;6.934;2023-07-30T03:37:38;3.57;;;2.00;;
22963;SDS011;11648;49.306;6.934;2023-07-30T03:40:05;2.97;;;1.77;;
22963;SDS011;11648;49.306;6.934;2023-07-30T03:42:33;4.47;;;1.83;;
22963;SDS011;11648;49.306;6.934;2023-07-30T03:44:59;3.93;;;1.80;;
22963;SDS011;11648;49.306;6.934;2023-07-30T03:47:26;4.70;;;2.40;;
22963;SDS011;11648;49.306;6.934;2023-07-30T03:49:53;4.20;;;2.40;;
22963;SDS011;11648;49.306;6.934;2023-07-30T03:52:20;3.37;;;2.10;;
22963;SDS011;11648;49.306;6.934;2023-07-30T03:54:47;4.83;;;2.13;;
22963;SDS011;11648;49.306;6.934;2023-07-30T03:57:14;3.67;;;2.17;;
22963;SDS011;11648;49.306;6.934;2023-07-30T03:59:40;3.90;;;2.40;;
22963;SDS011;11648;49.306;6.934;2023-07-30T04:02:07;3.37;;;2.00;;
22963;SDS011;11648;49.306;6.934;2023-07-30T04:04:34;4.00;;;2.17;;
22963;SDS011;11648;49.306;6.934;2023-07-30T04:07:01;2.90;;;1.80;;
22963;SDS011;11648;49.306;6.934;2023-07-30T04:09:28;6.43;;;2.13;;
22963;SDS011;11648;49.306;6.934;2023-07-30T04:11:54;3.07;;;1.90;;
22963;SDS011;11648;49.306;6.934;2023-07-30T04:14:21;3.17;;;1.80;;
22963;SDS011;11648;49.306;6.934;2023-07-30T04:16:48;3.30;;;1.60;;
22963;SDS011;11648;49.306;6.934;2023-07-30T04:19:15;5.20;;;1.80;;
22963;SDS011;11648;49.306;6.934;2023-07-30T04:21:42;3.40;;;1.90;;
22963;SDS011;11648;49.306;6.934;2023-07-30T04:24:08;4.63;;;1.77;;
22963;SDS011;11648;49.306;6.934;2023-07-30T04:26:35;2.77;;;1.73;;
22963;SDS011;11648;49.306;6.934;2023-07-30T04:29:02;3.80;;;1.93;;
22963;SDS011;11648;49.306;6.934;2023-07-30T04:31:29;3.83;;;1.80;;
22963;SDS011;11648;49.306;6.934;2023-07-30T04:33:57;2.20;;;1.77;;
22963;SDS011;11648;49.306;6.934;2023-07-30T04:36:23;3.17;;;2.10;;
22963;SDS011;11648;49.306;6.934;2023-07-30T04:38:51;4.23;;;1.97;;
22963;SDS011;11648;49.306;6.934;2023-07-30T04:41:20;4.43;;;2.20;;
22963;SDS011;11648;49.306;6.934;2023-07-30T04:43:53;3.30;;;2.23;;
22963;SDS011;11648;49.306;6.934;2023-07-30T04:46:20;2.87;;;2.07;;
22963;SDS011;11648;49.306;6.934;2023-07-30T04:48:47;3.33;;;2.10;;
22963;SDS011;11648;49.306;6.934;2023-07-30T04:51:17;3.23;;;2.00;;
22963;SDS011;11648;49.306;6.934;2023-07-30T04:53:44;3.43;;;2.03;;
22963;SDS011;11648;49.306;6.934;2023-07-30T04:56:10;3.60;;;2.03;;
22963;SDS011;11648;49.306;6.934;2023-07-30T04:58:37;3.60;;;2.20;;
22963;SDS011;11648;49.306;6.934;2023-07-30T05:01:04;3.60;;;2.20;;
22963;SDS011;11648;49.306;6.934;2023-07-30T05:03:30;3.63;;;2.03;;
22963;SDS011;11648;49.306;6.934;2023-07-30T05:05:57;3.10;;;2.30;;
22963;SDS011;11648;49.306;6.934;2023-07-30T05:08:24;5.00;;;2.20;;
22963;SDS011;11648;49.306;6.934;2023-07-30T05:10:51;3.63;;;2.23;;
22963;SDS011;11648;49.306;6.934;2023-07-30T05:13:17;4.03;;;2.10;;
22963;SDS011;11648;49.306;6.934;2023-07-30T05:15:44;2.83;;;2.00;;
22963;SDS011;11648;49.306;6.934;2023-07-30T05:18:11;3.43;;;2.00;;
22963;SDS011;11648;49.306;6.934;2023-07-30T05:20:38;4.67;;;2.33;;
22963;SDS011;11648;49.306;6.934;2023-07-30T05:23:04;3.67;;;2.17;;
22963;SDS011;11648;49.306;6.934;2023-07-30T05:25:35;3.23;;;1.83;;
22963;SDS011;11648;49.306;6.934;2023-07-30T05:28:02;5.13;;;2.10;;
22963;SDS011;11648;49.306;6.934;2023-07-30T05:30:29;3.13;;;1.73;;
22963;SDS011;11648;49.306;6.934;2023-07-30T05:32:56;3.57;;;1.80;;
22963;SDS011;11648;49.306;6.934;2023-07-30T05:35:22;2.30;;;1.70;;
22963;SDS011;11648;49.306;6.934;2023-07-30T05:37:51;2.63;;;1.77;;
22963;SDS011;11648;49.306;6.934;2023-07-30T05:40:18;3.40;;;2.00;;
22963;SDS011;11648;49.306;6.934;2023-07-30T05:42:44;3.67;;;1.77;;
22963;SDS011;11648;49.306;6.934;2023-07-30T05:45:11;3.43;;;1.63;;
22963;SDS011;11648;49.306;6.934;2023-07-30T05:47:38;2.80;;;1.93;;
22963;SDS011;11648;49.306;6.934;2023-07-30T05:50:08;3.03;;;1.50;;
22963;SDS011;11648;49.306;6.934;2023-07-30T05:52:35;3.53;;;1.67;;
22963;SDS011;11648;49.306;6.934;2023-07-30T05:55:02;5.50;;;1.53;;
22963;SDS011;11648;49.306;6.934;2023-07-30T05:57:29;2.90;;;1.63;;
22963;SDS011;11648;49.306;6.934;2023-07-30T05:59:56;2.43;;;1.67;;
22963;SDS011;11648;49.306;6.934;2023-07-30T06:02:23;4.87;;;1.63;;
22963;SDS011;11648;49.306;6.934;2023-07-30T06:04:49;3.13;;;1.60;;
22963;SDS011;11648;49.306;6.934;2023-07-30T06:07:16;4.37;;;1.80;;
22963;SDS011;11648;49.306;6.934;2023-07-30T06:09:43;3.73;;;1.73;;
22963;SDS011;11648;49.306;6.934;2023-07-30T06:12:11;2.60;;;1.70;;
22963;SDS011;11648;49.306;6.934;2023-07-30T06:14:38;3.07;;;1.77;;
22963;SDS011;11648;49.306;6.934;2023-07-30T06:17:05;6.40;;;2.40;;
22963;SDS011;11648;49.306;6.934;2023-07-30T06:19:32;4.37;;;2.10;;
22963;SDS011;11648;49.306;6.934;2023-07-30T06:21:58;3.67;;;1.70;;
22963;SDS011;11648;49.306;6.934;2023-07-30T06:24:25;4.57;;;1.90;;
22963;SDS011;11648;49.306;6.934;2023-07-30T06:26:52;3.30;;;1.63;;
22963;SDS011;11648;49.306;6.934;2023-07-30T06:29:18;5.87;;;1.70;;
22963;SDS011;11648;49.306;6.934;2023-07-30T06:31:45;3.50;;;1.60;;
22963;SDS011;11648;49.306;6.934;2023-07-30T06:34:12;4.10;;;1.50;;
22963;SDS011;11648;49.306;6.934;2023-07-30T06:36:39;2.63;;;1.40;;
22963;SDS011;11648;49.306;6.934;2023-07-30T06:39:06;3.33;;;1.63;;
22963;SDS011;11648;49.306;6.934;2023-07-30T06:41:33;3.27;;;2.03;;
22963;SDS011;11648;49.306;6.934;2023-07-30T06:44:00;4.27;;;1.70;;
22963;SDS011;11648;49.306;6.934;2023-07-30T06:46:27;3.40;;;1.60;;
22963;SDS011;11648;49.306;6.934;2023-07-30T06:48:53;4.30;;;2.00;;
22963;SDS011;11648;49.306;6.934;2023-07-30T06:51:23;3.43;;;1.43;;
22963;SDS011;11648;49.306;6.934;2023-07-30T06:53:50;3.20;;;1.70;;
22963;SDS011;11648;49.306;6.934;2023-07-30T06:56:17;4.27;;;1.60;;
22963;SDS011;11648;49.306;6.934;2023-07-30T06:58:44;3.47;;;1.50;;
22963;SDS011;11648;49.306;6.934;2023-07-30T07:01:10;3.63;;;1.80;;
22963;SDS011;11648;49.306;6.934;2023-07-30T07:03:37;3.00;;;1.80;;
22963;SDS011;11648;49.306;6.934;2023-07-30T07:06:04;3.90;;;1.63;;
22963;SDS011;11648;49.306;6.934;2023-07-30T07:08:31;2.83;;;1.20;;
22963;SDS011;11648;49.306;6.934;2023-07-30T07:10:58;4.90;;;1.33;;
22963;SDS011;11648;49.306;6.934;2023-07-30T07:13:25;5.67;;;1.13;;
22963;SDS011;11648;49.306;6.934;2023-07-30T07:15:51;2.43;;;1.13;;
22963;SDS011;11648;49.306;6.934;2023-07-30T07:18:19;2.50;;;1.00;;
22963;SDS011;11648;49.306;6.934;2023-07-30T07:20:45;5.23;;;1.10;;
22963;SDS011;11648;49.306;6.934;2023-07-30T07:23:12;1.97;;;0.87;;
22963;SDS011;11648;49.306;6.934;2023-07-30T07:25:39;2.40;;;1.13;;
22963;SDS011;11648;49.306;6.934;2023-07-30T07:28:06;2.50;;;0.90;;
22963;SDS011;11648;49.306;6.934;2023-07-30T07:30:36;2.97;;;1.00;;
22963;SDS011;11648;49.306;6.934;2023-07-30T07:33:03;2.67;;;0.83;;
22963;SDS011;11648;49.306;6.934;2023-07-30T07:35:32;2.43;;;0.90;;
22963;SDS011;11648;49.306;6.934;2023-07-30T07:37:59;2.43;;;0.90;;
22963;SDS011;11648;49.306;6.934;2023-07-30T07:40:25;2.13;;;0.83;;
22963;SDS011;11648;49.306;6.934;2023-07-30T07:42:52;3.40;;;1.00;;
22963;SDS011;11648;49.306;6.934;2023-07-30T07:45:19;2.97;;;1.00;;
22963;SDS011;11648;49.306;6.934;2023-07-30T07:47:46;2.90;;;1.00;;
22963;SDS011;11648;49.306;6.934;2023-07-30T07:50:13;2.43;;;0.90;;
22963;SDS011;11648;49.306;6.934;2023-07-30T07:52:39;2.40;;;0.70;;
22963;SDS011;11648;49.306;6.934;2023-07-30T07:55:07;2.63;;;0.53;;
22963;SDS011;11648;49.306;6.934;2023-07-30T07:57:34;2.20;;;0.63;;
22963;SDS011;11648;49.306;6.934;2023-07-30T08:00:04;3.33;;;0.80;;
22963;SDS011;11648;49.306;6.934;2023-07-30T08:02:37;3.40;;;0.80;;
22963;SDS011;11648;49.306;6.934;2023-07-30T08:05:04;1.60;;;0.73;;
22963;SDS011;11648;49.306;6.934;2023-07-30T08:07:31;3.53;;;0.80;;
22963;SDS011;11648;49.306;6.934;2023-07-30T08:09:58;2.50;;;0.70;;
22963;SDS011;11648;49.306;6.934;2023-07-30T08:12:25;2.53;;;0.90;;
22963;SDS011;11648;49.306;6.934;2023-07-30T08:14:51;3.07;;;0.80;;
22963;SDS011;11648;49.306;6.934;2023-07-30T08:17:18;3.13;;;1.07;;
22963;SDS011;11648;49.306;6.934;2023-07-30T08:19:45;2.07;;;1.00;;
22963;SDS011;11648;49.306;6.934;2023-07-30T08:22:11;3.23;;;1.20;;
22963;SDS011;11648;49.306;6.934;2023-07-30T08:24:38;3.10;;;1.20;;
22963;SDS011;11648;49.306;6.934;2023-07-30T08:27:05;2.47;;;0.87;;
22963;SDS011;11648;49.306;6.934;2023-07-30T08:29:32;2.83;;;1.23;;
22963;SDS011;11648;49.306;6.934;2023-07-30T08:31:59;3.10;;;0.90;;
22963;SDS011;11648;49.306;6.934;2023-07-30T08:34:25;3.87;;;1.00;;
22963;SDS011;11648;49.306;6.934;2023-07-30T08:36:52;2.57;;;1.00;;
22963;SDS011;11648;49.306;6.934;2023-07-30T08:39:19;4.67;;;1.10;;
22963;SDS011;11648;49.306;6.934;2023-07-30T08:41:45;2.83;;;0.80;;
22963;SDS011;11648;49.306;6.934;2023-07-30T08:44:12;2.60;;;0.80;;
22963;SDS011;11648;49.306;6.934;2023-07-30T08:46:39;1.87;;;0.80;;
22963;SDS011;11648;49.306;6.934;2023-07-30T08:49:06;3.80;;;0.80;;
22963;SDS011;11648;49.306;6.934;2023-07-30T08:51:33;2.40;;;0.67;;
22963;SDS011;11648;49.306;6.934;2023-07-30T08:54:02;3.13;;;0.90;;
22963;SDS011;11648;49.306;6.934;2023-07-30T08:56:30;2.70;;;0.90;;
22963;SDS011;11648;49.306;6.934;2023-07-30T08:58:57;3.03;;;0.97;;
22963;SDS011;11648;49.306;6.934;2023-07-30T09:01:27;2.23;;;0.87;;
22963;SDS011;11648;49.306;6.934;2023-07-30T09:04:00;4.73;;;1.17;;
22963;SDS011;11648;49.306;6.934;2023-07-30T09:06:27;2.40;;;0.80;;
22963;SDS011;11648;49.306;6.934;2023-07-30T09:08:54;4.10;;;0.82;;
22963;SDS011;11648;49.306;6.934;2023-07-30T09:11:20;6.32;;;1.10;;
22963;SDS011;11648;49.306;6.934;2023-07-30T09:13:53;3.90;;;0.90;;
22963;SDS011;11648;49.306;6.934;2023-07-30T09:16:24;2.92;;;0.80;;
22963;SDS011;11648;49.306;6.934;2023-07-30T09:18:51;3.47;;;1.23;;
22963;SDS011;11648;49.306;6.934;2023-07-30T09:21:28;2.50;;;0.63;;
22963;SDS011;11648;49.306;6.934;2023-07-30T09:23:56;3.50;;;0.90;;
22963;SDS011;11648;49.306;6.934;2023-07-30T09:26:23;4.88;;;1.13;;
22963;SDS011;11648;49.306;6.934;2023-07-30T09:28:50;3.95;;;1.00;;
22963;SDS011;11648;49.306;6.934;2023-07-30T09:31:17;5.63;;;1.30;;
22963;SDS011;11648;49.306;6.934;2023-07-30T09:34:02;3.67;;;1.30;;
22963;SDS011;11648;49.306;6.934;2023-07-30T09:36:28;4.95;;;1.40;;
22963;SDS011;11648;49.306;6.934;2023-07-30T09:38:57;3.90;;;1.10;;
22963;SDS011;11648;49.306;6.934;2023-07-30T09:41:23;3.70;;;1.00;;
22963;SDS011;11648;49.306;6.934;2023-07-30T09:43:57;6.80;;;1.20;;
22963;SDS011;11648;49.306;6.934;2023-07-30T09:46:28;5.85;;;1.13;;
22963;SDS011;11648;49.306;6.934;2023-07-30T09:48:56;3.53;;;1.00;;
22963;SDS011;11648;49.306;6.934;2023-07-30T09:51:24;3.97;;;1.00;;
22963;SDS011;11648;49.306;6.934;2023-07-30T09:53:50;3.97;;;1.40;;
22963;SDS011;11648;49.306;6.934;2023-07-30T09:56:18;4.50;;;1.20;;
22963;SDS011;11648;49.306;6.934;2023-07-30T09:58:45;3.10;;;1.00;;
22963;SDS011;11648;49.306;6.934;2023-07-30T10:01:12;4.40;;;0.97;;
22963;SDS011;11648;49.306;6.934;2023-07-30T10:03:39;5.07;;;1.10;;
22963;SDS011;11648;49.306;6.934;2023-07-30T10:06:06;3.33;;;1.00;;
22963;SDS011;11648;49.306;6.934;2023-07-30T10:08:35;4.67;;;1.13;;
22963;SDS011;11648;49.306;6.934;2023-07-30T10:11:05;4.03;;;1.13;;
22963;SDS011;11648;49.306;6.934;2023-07-30T10:13:35;5.28;;;0.93;;
22963;SDS011;11648;49.306;6.934;2023-07-30T10:16:08;4.45;;;1.00;;
22963;SDS011;11648;49.306;6.934;2023-07-30T10:18:40;3.63;;;1.17;;
22963;SDS011;11648;49.306;6.934;2023-07-30T10:21:08;3.10;;;0.90;;
22963;SDS011;11648;49.306;6.934;2023-07-30T10:23:36;3.67;;;1.13;;
22963;SDS011;11648;49.306;6.934;2023-07-30T10:26:12;3.05;;;0.93;;
22963;SDS011;11648;49.306;6.934;2023-07-30T10:28:39;2.90;;;0.80;;
22963;SDS011;11648;49.306;6.934;2023-07-30T10:31:10;3.78;;;1.10;;
22963;SDS011;11648;49.306;6.934;2023-07-30T10:33:46;4.25;;;0.90;;
22963;SDS011;11648;49.306;6.934;2023-07-30T10:36:31;3.78;;;0.80;;
22963;SDS011;11648;49.306;6.934;2023-07-30T10:41:42;3.95;;;1.10;;
22963;SDS011;11648;49.306;6.934;2023-07-30T10:44:27;3.03;;;0.98;;
22963;SDS011;11648;49.306;6.934;2023-07-30T10:46:58;4.43;;;1.10;;
22963;SDS011;11648;49.306;6.934;2023-07-30T10:49:26;7.47;;;1.17;;
22963;SDS011;11648;49.306;6.934;2023-07-30T10:51:54;2.83;;;1.13;;
22963;SDS011;11648;49.306;6.934;2023-07-30T10:54:23;5.13;;;1.10;;
22963;SDS011;11648;49.306;6.934;2023-07-30T10:56:50;3.15;;;0.80;;
22963;SDS011;11648;49.306;6.934;2023-07-30T10:59:18;2.38;;;0.80;;
22963;SDS011;11648;49.306;6.934;2023-07-30T11:01:46;3.88;;;0.90;;
22963;SDS011;11648;49.306;6.934;2023-07-30T11:04:19;2.17;;;0.75;;
22963;SDS011;11648;49.306;6.934;2023-07-30T11:06:48;3.20;;;0.60;;
22963;SDS011;11648;49.306;6.934;2023-07-30T11:09:25;2.60;;;0.88;;
22963;SDS011;11648;49.306;6.934;2023-07-30T11:11:54;2.92;;;0.80;;
22963;SDS011;11648;49.306;6.934;2023-07-30T11:14:22;3.47;;;0.98;;
22963;SDS011;11648;49.306;6.934;2023-07-30T11:16:53;2.83;;;1.00;;
22963;SDS011;11648;49.306;6.934;2023-07-30T11:19:20;2.70;;;0.90;;
22963;SDS011;11648;49.306;6.934;2023-07-30T11:21:48;2.75;;;1.05;;
22963;SDS011;11648;49.306;6.934;2023-07-30T11:24:19;3.60;;;1.10;;
22963;SDS011;11648;49.306;6.934;2023-07-30T11:26:56;4.30;;;1.05;;
22963;SDS011;11648;49.306;6.934;2023-07-30T11:29:27;2.45;;;1.00;;
22963;SDS011;11648;49.306;6.934;2023-07-30T11:31:57;3.67;;;1.20;;
22963;SDS011;11648;49.306;6.934;2023-07-30T11:34:26;3.38;;;0.80;;
22963;SDS011;11648;49.306;6.934;2023-07-30T11:36:54;2.80;;;0.77;;
22963;SDS011;11648;49.306;6.934;2023-07-30T11:39:22;4.10;;;0.90;;
22963;SDS011;11648;49.306;6.934;2023-07-30T11:41:50;4.53;;;1.10;;
22963;SDS011;11648;49.306;6.934;2023-07-30T11:44:30;3.45;;;0.98;;
22963;SDS011;11648;49.306;6.934;2023-07-30T11:47:01;3.45;;;1.00;;
22963;SDS011;11648;49.306;6.934;2023-07-30T11:49:30;3.58;;;0.95;;
22963;SDS011;11648;49.306;6.934;2023-07-30T11:52:07;3.17;;;1.00;;
22963;SDS011;11648;49.306;6.934;2023-07-30T11:54:35;5.18;;;1.48;;
22963;SDS011;11648;49.306;6.934;2023-07-30T11:57:02;4.43;;;1.90;;
22963;SDS011;11648;49.306;6.934;2023-07-30T11:59:30;3.88;;;1.08;;
22963;SDS011;11648;49.306;6.934;2023-07-30T12:01:57;2.35;;;1.00;;
22963;SDS011;11648;49.306;6.934;2023-07-30T12:04:24;2.60;;;0.90;;
22963;SDS011;11648;49.306;6.934;2023-07-30T12:06:51;2.47;;;0.90;;
22963;SDS011;11648;49.306;6.934;2023-07-30T12:09:20;3.05;;;0.90;;
22963;SDS011;11648;49.306;6.934;2023-07-30T12:14:17;2.85;;;0.90;;
22963;SDS011;11648;49.306;6.934;2023-07-30T12:16:45;2.95;;;0.80;;
22963;SDS011;11648;49.306;6.934;2023-07-30T12:19:12;3.53;;;1.02;;
22963;SDS011;11648;49.306;6.934;2023-07-30T12:21:38;4.07;;;1.08;;
22963;SDS011;11648;49.306;6.934;2023-07-30T12:24:05;5.63;;;1.15;;
22963;SDS011;11648;49.306;6.934;2023-07-30T12:26:32;3.38;;;1.02;;
22963;SDS011;11648;49.306;6.934;2023-07-30T12:28:59;5.37;;;1.37;;
22963;SDS011;11648;49.306;6.934;2023-07-30T12:31:25;6.87;;;1.37;;
22963;SDS011;11648;49.306;6.934;2023-07-30T12:33:52;3.90;;;1.03;;
22963;SDS011;11648;49.306;6.934;2023-07-30T12:36:19;4.93;;;1.10;;
22963;SDS011;11648;49.306;6.934;2023-07-30T12:38:46;3.93;;;1.10;;
22963;SDS011;11648;49.306;6.934;2023-07-30T12:41:13;5.30;;;1.27;;
22963;SDS011;11648;49.306;6.934;2023-07-30T12:43:39;3.93;;;1.20;;
22963;SDS011;11648;49.306;6.934;2023-07-30T12:46:06;2.67;;;0.93;;
22963;SDS011;11648;49.306;6.934;2023-07-30T12:48:33;2.60;;;0.97;;
22963;SDS011;11648;49.306;6.934;2023-07-30T12:51:00;4.45;;;1.42;;
22963;SDS011;11648;49.306;6.934;2023-07-30T12:53:26;4.10;;;1.00;;
22963;SDS011;11648;49.306;6.934;2023-07-30T12:55:53;4.25;;;1.00;;
22963;SDS011;11648;49.306;6.934;2023-07-30T12:58:20;2.88;;;1.00;;
22963;SDS011;11648;49.306;6.934;2023-07-30T13:00:47;5.32;;;1.20;;
22963;SDS011;11648;49.306;6.934;2023-07-30T13:03:13;3.30;;;0.90;;
22963;SDS011;11648;49.306;6.934;2023-07-30T13:05:40;2.93;;;0.83;;
22963;SDS011;11648;49.306;6.934;2023-07-30T13:08:07;4.07;;;1.00;;
22963;SDS011;11648;49.306;6.934;2023-07-30T13:10:34;3.72;;;1.00;;
22963;SDS011;11648;49.306;6.934;2023-07-30T13:13:02;2.95;;;0.90;;
22963;SDS011;11648;49.306;6.934;2023-07-30T13:15:28;3.50;;;0.93;;
22963;SDS011;11648;49.306;6.934;2023-07-30T13:17:55;3.40;;;0.80;;
22963;SDS011;11648;49.306;6.934;2023-07-30T13:20:22;5.13;;;1.07;;
22963;SDS011;11648;49.306;6.934;2023-07-30T13:22:52;5.07;;;0.90;;
22963;SDS011;11648;49.306;6.934;2023-07-30T13:25:20;4.05;;;0.82;;
22963;SDS011;11648;49.306;6.934;2023-07-30T13:27:47;3.70;;;1.00;;
22963;SDS011;11648;49.306;6.934;2023-07-30T13:30:13;4.27;;;1.20;;
22963;SDS011;11648;49.306;6.934;2023-07-30T13:32:41;5.67;;;1.13;;
22963;SDS011;11648;49.306;6.934;2023-07-30T13:35:08;4.47;;;1.07;;
22963;SDS011;11648;49.306;6.934;2023-07-30T13:37:35;5.93;;;1.47;;
22963;SDS011;11648;49.306;6.934;2023-07-30T13:40:02;5.40;;;1.43;;
22963;SDS011;11648;49.306;6.934;2023-07-30T13:42:29;3.97;;;1.30;;
22963;SDS011;11648;49.306;6.934;2023-07-30T13:44:56;3.87;;;1.10;;
22963;SDS011;11648;49.306;6.934;2023-07-30T13:47:22;5.33;;;1.97;;
22963;SDS011;11648;49.306;6.934;2023-07-30T13:49:50;5.40;;;1.03;;
22963;SDS011;11648;49.306;6.934;2023-07-30T13:52:17;4.10;;;1.20;;
22963;SDS011;11648;49.306;6.934;2023-07-30T13:54:43;2.13;;;0.73;;
22963;SDS011;11648;49.306;6.934;2023-07-30T13:57:11;3.93;;;1.20;;
22963;SDS011;11648;49.306;6.934;2023-07-30T13:59:38;3.93;;;1.27;;
22963;SDS011;11648;49.306;6.934;2023-07-30T14:02:06;3.90;;;1.00;;
22963;SDS011;11648;49.306;6.934;2023-07-30T14:04:33;3.70;;;1.07;;
22963;SDS011;11648;49.306;6.934;2023-07-30T14:06:59;3.00;;;0.97;;
22963;SDS011;11648;49.306;6.934;2023-07-30T14:09:26;4.70;;;1.00;;
22963;SDS011;11648;49.306;6.934;2023-07-30T14:11:59;3.43;;;0.90;;
22963;SDS011;11648;49.306;6.934;2023-07-30T14:14:26;5.40;;;1.10;;
22963;SDS011;11648;49.306;6.934;2023-07-30T14:16:54;2.53;;;0.90;;
22963;SDS011;11648;49.306;6.934;2023-07-30T14:19:21;5.40;;;1.10;;
22963;SDS011;11648;49.306;6.934;2023-07-30T14:21:48;4.20;;;1.50;;
22963;SDS011;11648;49.306;6.934;2023-07-30T14:24:15;3.20;;;1.00;;
22963;SDS011;11648;49.306;6.934;2023-07-30T14:26:42;3.70;;;0.97;;
22963;SDS011;11648;49.306;6.934;2023-07-30T14:29:08;2.80;;;1.10;;
22963;SDS011;11648;49.306;6.934;2023-07-30T14:31:35;4.43;;;1.38;;
22963;SDS011;11648;49.306;6.934;2023-07-30T14:34:06;4.10;;;1.23;;
22963;SDS011;11648;49.306;6.934;2023-07-30T14:36:33;4.82;;;1.20;;
22963;SDS011;11648;49.306;6.934;2023-07-30T14:38:59;4.10;;;1.07;;
22963;SDS011;11648;49.306;6.934;2023-07-30T14:41:26;3.43;;;0.93;;
22963;SDS011;11648;49.306;6.934;2023-07-30T14:43:53;2.65;;;0.90;;
22963;SDS011;11648;49.306;6.934;2023-07-30T14:46:20;4.40;;;1.25;;
22963;SDS011;11648;49.306;6.934;2023-07-30T14:48:47;4.77;;;0.97;;
22963;SDS011;11648;49.306;6.934;2023-07-30T14:51:15;2.50;;;0.90;;
22963;SDS011;11648;49.306;6.934;2023-07-30T14:53:42;3.97;;;1.20;;
22963;SDS011;11648;49.306;6.934;2023-07-30T14:56:10;3.30;;;0.90;;
22963;SDS011;11648;49.306;6.934;2023-07-30T14:58:36;4.13;;;1.07;;